createdAt,value
2022-08-09T00:01:48.300Z,46.80
2022-08-09T00:04:34.205Z,46.60
2022-08-09T00:07:10.592Z,47.00
2022-08-09T00:09:40.768Z,47.00
2022-08-09T00:12:22.300Z,47.20
2022-08-09T00:14:55.936Z,47.10
2022-08-09T00:18:04.468Z,47.40
2022-08-09T00:20:16.113Z,47.50
2022-08-09T00:22:47.083Z,47.30
2022-08-09T00:25:23.536Z,46.90
2022-08-09T00:28:04.150Z,46.90
2022-08-09T00:30:33.596Z,47.20
2022-08-09T00:33:02.498Z,47.40
2022-08-09T00:35:42.981Z,47.60
2022-08-09T00:38:13.860Z,47.70
2022-08-09T00:40:52.858Z,47.50
2022-08-09T00:44:19.571Z,47.50
2022-08-09T00:46:14.541Z,47.30
2022-08-09T00:49:01.011Z,47.60
2022-08-09T00:51:42.584Z,47.80
2022-08-09T00:54:23.359Z,47.40
2022-08-09T00:57:10.711Z,47.20
2022-08-09T00:59:46.070Z,47.50
2022-08-09T01:02:21.516Z,47.10
2022-08-09T01:05:02.574Z,47.60
2022-08-09T01:08:01.160Z,47.60
2022-08-09T01:10:43.739Z,47.70
2022-08-09T01:13:22.231Z,47.10
2022-08-09T01:15:57.064Z,46.90
2022-08-09T01:18:31.940Z,46.90
2022-08-09T01:21:20.568Z,47.40
2022-08-09T01:24:04.956Z,47.40
2022-08-09T01:26:55.905Z,47.60
2022-08-09T01:29:41.277Z,47.50
2022-08-09T01:32:32.514Z,47.70
2022-08-09T01:35:28.471Z,47.70
2022-08-09T01:38:08.311Z,47.80
2022-08-09T01:40:53.012Z,47.90
2022-08-09T01:43:51.089Z,48.20
2022-08-09T01:46:27.254Z,48.60
2022-08-09T01:49:10.689Z,48.40
2022-08-09T01:51:53.656Z,48.60
2022-08-09T01:54:32.959Z,48.40
2022-08-09T01:57:09.868Z,48.70
2022-08-09T01:59:52.043Z,48.70
2022-08-09T02:02:30.873Z,48.60
2022-08-09T02:05:15.138Z,48.90
2022-08-09T02:08:38.947Z,48.80
2022-08-09T02:10:51.431Z,49.10
2022-08-09T02:13:26.253Z,49.40
2022-08-09T02:16:13.499Z,49.40
2022-08-09T02:18:47.660Z,49.60
2022-08-09T02:21:22.642Z,49.20
2022-08-09T02:23:57.456Z,49.10
2022-08-09T02:26:31.335Z,49.10
2022-08-09T02:29:10.604Z,49.00
2022-08-09T02:31:45.996Z,49.10
2022-08-09T02:34:25.756Z,49.20
2022-08-09T02:37:15.895Z,49.90
2022-08-09T02:39:55.194Z,49.30
2022-08-09T02:42:37.973Z,49.20
2022-08-09T02:45:15.188Z,49.10
2022-08-09T02:47:58.775Z,49.10
2022-08-09T02:50:34.501Z,49.10
2022-08-09T02:53:25.759Z,49.10
2022-08-09T02:56:00.096Z,49.10
2022-08-09T02:58:37.511Z,49.40
2022-08-09T03:01:11.333Z,49.40
2022-08-09T03:04:18.165Z,49.40
2022-08-09T03:06:45.470Z,49.40
2022-08-09T03:09:15.710Z,49.20
2022-08-09T03:12:09.885Z,48.90
2022-08-09T03:14:37.158Z,49.20
2022-08-09T03:17:06.465Z,49.20
2022-08-09T03:19:59.279Z,49.30
2022-08-09T03:22:31.648Z,49.60
2022-08-09T03:25:21.842Z,49.70
2022-08-09T03:27:55.310Z,49.80
2022-08-09T03:30:33.221Z,49.90
2022-08-09T03:33:18.464Z,49.80
2022-08-09T03:36:12.949Z,50.60
2022-08-09T03:38:44.567Z,50.00
2022-08-09T03:41:16.659Z,49.90
2022-08-09T03:44:04.055Z,49.80
2022-08-09T03:46:38.159Z,50.00
2022-08-09T03:49:10.787Z,49.90
2022-08-09T03:51:58.742Z,50.10
2022-08-09T03:54:34.810Z,50.00
2022-08-09T03:57:17.959Z,50.00
2022-08-09T03:59:54.915Z,50.10
2022-08-09T04:02:30.127Z,49.70
2022-08-09T04:05:06.450Z,49.30
2022-08-09T04:07:53.454Z,49.90
2022-08-09T04:10:29.027Z,49.50
2022-08-09T04:13:04.206Z,50.10
2022-08-09T04:15:52.058Z,49.60
2022-08-09T04:18:22.577Z,49.60
2022-08-09T04:20:54.418Z,50.00
2022-08-09T04:23:25.851Z,50.00
2022-08-09T04:25:56.354Z,50.00
2022-08-09T04:28:33.260Z,50.30
2022-08-09T04:31:09.366Z,50.00
2022-08-09T04:33:52.234Z,50.30
2022-08-09T04:36:28.647Z,50.40
2022-08-09T04:39:01.126Z,50.00
2022-08-09T04:41:32.227Z,49.90
2022-08-09T04:44:06.443Z,50.10
2022-08-09T04:46:58.786Z,50.30
2022-08-09T04:49:52.708Z,50.30
2022-08-09T04:52:26.882Z,50.10
2022-08-09T04:55:00.397Z,49.70
2022-08-09T04:57:58.542Z,49.80
2022-08-09T05:00:18.742Z,49.70
2022-08-09T05:02:48.619Z,49.30
2022-08-09T05:05:31.935Z,49.30
2022-08-09T05:08:14.055Z,49.10
2022-08-09T05:10:45.579Z,49.40
2022-08-09T05:13:15.154Z,49.70
2022-08-09T05:15:48.228Z,49.90
2022-08-09T05:18:37.443Z,49.40
2022-08-09T05:21:23.266Z,49.40
2022-08-09T05:24:00.250Z,49.70
2022-08-09T05:26:37.413Z,49.20
2022-08-09T05:29:21.875Z,49.30
2022-08-09T05:31:57.521Z,49.10
2022-08-09T05:34:30.998Z,49.80
2022-08-09T05:37:06.410Z,49.20
2022-08-09T05:39:42.811Z,49.80
2022-08-09T05:42:20.938Z,49.20
2022-08-09T05:44:52.443Z,48.80
2022-08-09T05:47:22.558Z,48.90
2022-08-09T05:50:26.693Z,48.30
2022-08-09T05:52:43.363Z,48.40
2022-08-09T05:55:20.993Z,48.70
2022-08-09T05:57:56.562Z,49.00
2022-08-09T06:00:29.380Z,49.00
2022-08-09T06:02:59.940Z,48.00
2022-08-09T06:05:57.541Z,48.40
2022-08-09T06:08:24.359Z,47.90
2022-08-09T06:10:55.608Z,48.20
2022-08-09T06:13:28.570Z,48.00
2022-08-09T06:16:04.798Z,48.10
2022-08-09T06:18:36.507Z,48.10
2022-08-09T06:21:08.170Z,47.80
2022-08-09T06:23:57.329Z,47.80
2022-08-09T06:26:28.708Z,47.40
2022-08-09T06:29:04.975Z,46.80
2022-08-09T06:31:40.156Z,47.20
2022-08-09T06:34:26.275Z,47.60
2022-08-09T06:36:59.824Z,47.20
2022-08-09T06:39:39.642Z,47.00
2022-08-09T06:42:24.735Z,47.40
2022-08-09T06:45:00.194Z,46.90
2022-08-09T06:47:39.751Z,47.10
2022-08-09T06:50:19.285Z,47.00
2022-08-09T06:52:51.723Z,47.50
2022-08-09T06:55:24.238Z,47.50
2022-08-09T06:58:02.844Z,46.80
2022-08-09T07:00:55.139Z,46.70
2022-08-09T07:03:28.570Z,46.20
2022-08-09T07:06:04.845Z,45.50
2022-08-09T07:08:37.170Z,46.30
2022-08-09T07:11:12.337Z,46.90
2022-08-09T07:14:03.999Z,45.80
2022-08-09T07:16:40.343Z,46.10
2022-08-09T07:19:15.460Z,46.50
2022-08-09T07:21:55.995Z,45.30
2022-08-09T07:24:32.041Z,45.90
2022-08-09T07:27:26.314Z,46.30
2022-08-09T07:30:01.895Z,46.10
2022-08-09T07:32:34.245Z,47.30
2022-08-09T07:35:10.116Z,46.40
2022-08-09T07:37:43.905Z,45.30
2022-08-09T07:40:18.890Z,44.50
2022-08-09T07:42:52.467Z,44.00
2022-08-09T07:45:40.361Z,44.20
2022-08-09T07:48:28.316Z,44.60
2022-08-09T07:51:10.288Z,44.10
2022-08-09T07:54:06.855Z,43.50
2022-08-09T07:56:48.825Z,43.30
2022-08-09T07:59:34.901Z,44.10
2022-08-09T08:02:09.614Z,44.20
2022-08-09T08:04:40.899Z,43.50
2022-08-09T08:08:43.972Z,43.20
2022-08-09T08:10:10.743Z,43.20
2022-08-09T08:12:45.531Z,43.60
2022-08-09T08:15:17.919Z,44.20
2022-08-09T08:17:53.868Z,43.60
2022-08-09T08:20:30.584Z,45.10
2022-08-09T08:23:16.146Z,45.80
2022-08-09T08:25:48.528Z,44.30
2022-08-09T08:28:26.225Z,44.20
2022-08-09T08:31:10.470Z,44.10
2022-08-09T08:33:52.765Z,43.50
2022-08-09T08:36:28.848Z,43.50
2022-08-09T08:39:00.272Z,42.20
2022-08-09T08:41:50.750Z,42.30
2022-08-09T08:44:27.249Z,43.70
2022-08-09T08:47:02.816Z,43.60
2022-08-09T08:49:47.790Z,43.50
2022-08-09T08:52:58.586Z,43.80
2022-08-09T08:55:15.119Z,44.40
2022-08-09T08:57:56.471Z,43.40
2022-08-09T09:00:29.722Z,44.10
2022-08-09T09:03:11.538Z,43.40
2022-08-09T09:06:03.360Z,42.80
2022-08-09T09:08:37.875Z,43.60
2022-08-09T09:11:13.630Z,44.50
2022-08-09T09:13:56.470Z,44.50
2022-08-09T09:16:31.862Z,43.70
2022-08-09T09:19:29.067Z,44.70
2022-08-09T09:22:02.954Z,43.00
2022-08-09T09:24:38.152Z,43.90
2022-08-09T09:27:22.151Z,43.50
2022-08-09T09:30:26.189Z,42.70
2022-08-09T09:33:16.412Z,43.40
2022-08-09T09:36:01.723Z,43.60
2022-08-09T09:38:47.756Z,43.90
2022-08-09T09:41:49.164Z,43.60
2022-08-09T09:44:27.852Z,42.80
2022-08-09T09:47:09.089Z,43.90
2022-08-09T09:50:07.478Z,43.70
2022-08-09T09:52:36.904Z,44.10
2022-08-09T09:55:28.924Z,44.60
2022-08-09T09:58:15.749Z,44.30
2022-08-09T10:00:53.012Z,43.90
2022-08-09T10:03:43.590Z,43.00
2022-08-09T10:06:13.597Z,43.10
2022-08-09T10:08:55.035Z,43.60
2022-08-09T10:12:00.014Z,43.50
2022-08-09T10:14:33.568Z,42.10
2022-08-09T10:17:40.071Z,42.10
2022-08-09T10:20:02.561Z,41.70
2022-08-09T10:22:36.395Z,42.30
2022-08-09T10:25:11.948Z,41.10
2022-08-09T10:27:56.212Z,42.00
2022-08-09T10:33:29.620Z,42.80
2022-08-09T10:36:11.834Z,43.20
2022-08-09T10:38:56.140Z,41.70
2022-08-09T10:41:28.445Z,42.50
2022-08-09T10:44:01.474Z,42.90
2022-08-09T10:48:12.637Z,42.30
2022-08-09T10:50:14.821Z,42.70
2022-08-09T10:53:23.068Z,44.10
2022-08-09T10:56:16.323Z,45.30
2022-08-09T10:58:54.124Z,44.00
2022-08-09T11:03:13.436Z,44.30
2022-08-09T11:04:32.818Z,44.20
2022-08-09T11:07:54.073Z,43.10
2022-08-09T11:10:38.445Z,43.20
2022-08-09T11:13:51.106Z,42.80
2022-08-09T11:16:41.048Z,42.40
2022-08-09T11:19:11.341Z,42.20
2022-08-09T11:21:57.440Z,40.20
2022-08-09T11:25:08.994Z,41.50
2022-08-09T11:28:05.433Z,42.30
2022-08-09T11:30:37.999Z,41.80
2022-08-09T11:33:25.543Z,41.80
2022-08-09T11:35:58.594Z,42.80
2022-08-09T11:38:33.862Z,41.20
2022-08-09T11:41:38.234Z,42.90
2022-08-09T11:44:09.852Z,42.60
2022-08-09T11:47:00.895Z,43.00
2022-08-09T11:50:54.842Z,41.90
2022-08-09T11:53:58.898Z,41.40
2022-08-09T11:56:41.529Z,39.90
2022-08-09T11:59:24.733Z,37.90
2022-08-09T12:02:34.737Z,38.60
2022-08-09T12:04:58.693Z,38.70
2022-08-09T12:07:41.512Z,39.20
2022-08-09T12:10:31.822Z,38.10
2022-08-09T12:14:10.542Z,38.20
2022-08-09T12:15:53.010Z,38.20
2022-08-09T12:18:26.212Z,38.30
2022-08-09T12:21:02.713Z,40.20
2022-08-09T12:23:57.915Z,39.20
2022-08-09T12:26:25.774Z,39.00
2022-08-09T12:29:12.578Z,38.80
2022-08-09T12:32:01.802Z,40.30
2022-08-09T12:34:37.726Z,41.10
2022-08-09T12:37:22.155Z,41.60
2022-08-09T12:40:06.554Z,41.30
2022-08-09T12:42:36.500Z,41.10
2022-08-09T12:45:33.269Z,41.00
2022-08-09T12:47:57.985Z,40.20
2022-08-09T12:50:27.357Z,41.00
2022-08-09T12:53:02.592Z,39.70
2022-08-09T12:56:12.864Z,40.20
2022-08-09T12:58:28.569Z,39.80
2022-08-09T13:00:59.587Z,39.00
2022-08-09T13:03:56.886Z,39.60
2022-08-09T13:06:34.983Z,40.00
2022-08-09T13:09:12.500Z,39.30
2022-08-09T13:11:44.847Z,39.70
2022-08-09T13:14:41.400Z,38.80
2022-08-09T13:17:44.036Z,39.50
2022-08-09T13:20:16.047Z,40.70
2022-08-09T13:23:05.862Z,40.30
2022-08-09T13:25:42.882Z,40.30
2022-08-09T13:28:34.644Z,40.10
2022-08-09T13:32:12.307Z,41.00
2022-08-09T13:33:58.553Z,40.30
2022-08-09T13:36:41.384Z,40.40
2022-08-09T13:41:50.970Z,40.90
2022-08-09T13:42:04.230Z,41.20
2022-08-09T13:44:34.713Z,42.00
2022-08-09T13:47:29.012Z,41.50
2022-08-09T13:49:57.297Z,40.80
2022-08-09T13:52:27.886Z,40.60
2022-08-09T13:54:59.799Z,41.50
2022-08-09T13:57:40.291Z,40.60
2022-08-09T14:00:15.472Z,41.60
2022-08-09T14:03:03.942Z,40.90
2022-08-09T14:06:00.618Z,40.90
2022-08-09T14:08:26.998Z,40.90
2022-08-09T14:11:00.197Z,41.20
2022-08-09T14:14:23.293Z,41.90
2022-08-09T14:16:28.178Z,41.00
2022-08-09T14:18:59.396Z,41.60
2022-08-09T14:21:32.094Z,42.60
2022-08-09T14:24:10.330Z,40.80
2022-08-09T14:26:51.338Z,40.90
2022-08-09T14:30:04.408Z,41.50
2022-08-09T14:32:13.317Z,41.60
2022-08-09T14:34:45.182Z,40.20
2022-08-09T14:37:15.396Z,41.00
2022-08-09T14:39:48.454Z,39.70
2022-08-09T14:42:30.135Z,40.20
2022-08-09T14:46:38.827Z,39.90
2022-08-09T14:47:57.494Z,39.80
2022-08-09T14:50:31.111Z,40.40
2022-08-09T14:53:02.415Z,39.60
2022-08-09T14:55:32.807Z,40.40
2022-08-09T14:58:04.932Z,40.10
2022-08-09T15:00:36.208Z,40.20
2022-08-09T15:03:08.950Z,40.20
2022-08-09T15:05:50.330Z,40.30
2022-08-09T15:08:24.354Z,39.50
2022-08-09T15:11:01.258Z,40.60
2022-08-09T15:13:48.489Z,40.60
2022-08-09T15:16:22.642Z,39.70
2022-08-09T15:18:52.172Z,39.40
2022-08-09T15:21:57.972Z,40.50
2022-08-09T15:24:15.344Z,39.40
2022-08-09T15:26:47.886Z,38.80
2022-08-09T15:30:57.472Z,39.90
2022-08-09T15:32:28.552Z,40.30
2022-08-09T15:35:00.931Z,41.00
2022-08-09T15:37:57.073Z,40.20
2022-08-09T15:40:32.116Z,40.90
2022-08-09T15:43:02.856Z,41.30
2022-08-09T15:46:07.682Z,41.30
2022-08-09T15:48:28.820Z,42.60
2022-08-09T15:51:00.395Z,41.10
2022-08-09T15:54:03.446Z,41.00
2022-08-09T15:56:23.344Z,41.00
2022-08-09T15:58:57.744Z,41.20
2022-08-09T16:01:26.935Z,41.60
2022-08-09T16:04:00.596Z,41.00
2022-08-09T16:06:35.782Z,41.30
2022-08-09T16:09:07.122Z,41.20
2022-08-09T16:11:37.456Z,41.90
2022-08-09T16:14:08.115Z,40.90
2022-08-09T16:16:41.989Z,41.00
2022-08-09T16:19:18.149Z,41.40
2022-08-09T16:21:53.681Z,41.20
2022-08-09T16:24:33.324Z,42.20
2022-08-09T16:27:05.346Z,41.90
2022-08-09T16:29:37.578Z,42.50
2022-08-09T16:32:34.217Z,41.50
2022-08-09T16:35:04.163Z,41.80
2022-08-09T16:37:54.864Z,41.60
2022-08-09T16:40:39.983Z,41.20
2022-08-09T16:43:11.805Z,42.10
2022-08-09T16:45:44.094Z,42.40
2022-08-09T16:48:42.733Z,42.60
2022-08-09T16:51:07.941Z,42.40
2022-08-09T16:53:47.254Z,42.40
2022-08-09T16:56:26.631Z,42.40
2022-08-09T16:59:10.207Z,42.50
2022-08-09T17:01:42.623Z,43.00
2022-08-09T17:04:24.443Z,42.70
2022-08-09T17:08:41.061Z,43.10
2022-08-09T17:09:47.214Z,42.90
2022-08-09T17:12:17.513Z,43.00
2022-08-09T17:14:49.946Z,44.00
2022-08-09T17:17:26.820Z,43.60
2022-08-09T17:20:28.586Z,42.70
2022-08-09T17:22:50.057Z,42.90
2022-08-09T17:25:23.697Z,43.30
2022-08-09T17:27:55.011Z,42.20
2022-08-09T17:30:30.652Z,42.90
2022-08-09T17:33:05.023Z,42.50
2022-08-09T17:35:41.346Z,42.60
2022-08-09T17:38:31.010Z,43.00
2022-08-09T17:41:02.760Z,43.10
2022-08-09T17:43:35.789Z,43.70
2022-08-09T17:46:09.861Z,44.10
2022-08-09T17:48:51.733Z,43.40
2022-08-09T17:51:22.673Z,43.80
2022-08-09T17:53:55.539Z,43.80
2022-08-09T17:56:35.299Z,44.40
2022-08-09T17:59:09.416Z,44.40
2022-08-09T18:02:06.573Z,44.30
2022-08-09T18:04:32.101Z,44.70
2022-08-09T18:07:23.665Z,45.10
2022-08-09T18:10:04.154Z,45.10
2022-08-09T18:12:40.460Z,45.40
2022-08-09T18:15:50.251Z,45.40
2022-08-09T18:18:25.439Z,45.80
2022-08-09T18:21:19.027Z,45.70
2022-08-09T18:24:12.000Z,46.10
2022-08-09T18:26:33.311Z,46.40
2022-08-09T18:30:38.745Z,46.10
2022-08-09T18:31:51.402Z,46.40
2022-08-09T18:34:28.990Z,46.60
2022-08-09T18:36:57.685Z,46.50
2022-08-09T18:39:32.608Z,46.30
2022-08-09T18:42:08.174Z,46.40
2022-08-09T18:44:38.025Z,46.70
2022-08-09T18:47:15.872Z,46.90
2022-08-09T18:49:47.811Z,46.90
2022-08-09T18:52:24.872Z,47.40
2022-08-09T18:54:57.621Z,47.40
2022-08-09T18:57:42.865Z,47.60
2022-08-09T19:00:16.349Z,48.00
2022-08-09T19:02:45.442Z,48.00
2022-08-09T19:05:28.602Z,47.90
2022-08-09T19:08:10.780Z,48.10
2022-08-09T19:10:47.995Z,48.10
2022-08-09T19:13:22.503Z,48.20
2022-08-09T19:16:06.244Z,48.20
2022-08-09T19:18:43.734Z,48.40
2022-08-09T19:21:15.720Z,48.70
2022-08-09T19:24:32.796Z,48.80
2022-08-09T19:26:37.236Z,48.90
2022-08-09T19:29:18.354Z,49.10
2022-08-09T19:31:51.403Z,49.20
2022-08-09T19:34:22.768Z,49.20
2022-08-09T19:36:57.481Z,49.00
2022-08-09T19:39:29.363Z,49.00
2022-08-09T19:42:19.668Z,49.30
2022-08-09T19:44:51.279Z,49.30
2022-08-09T19:47:23.682Z,49.20
2022-08-09T19:50:09.026Z,49.40
2022-08-09T19:52:49.279Z,49.80
2022-08-09T19:55:30.930Z,49.80
2022-08-09T19:58:15.867Z,49.70
2022-08-09T20:00:47.435Z,49.90
2022-08-09T20:04:09.785Z,50.00
2022-08-09T20:06:10.598Z,50.30
2022-08-09T20:08:56.530Z,50.30
2022-08-09T20:11:27.045Z,50.40
2022-08-09T20:14:02.551Z,50.30
2022-08-09T20:16:44.210Z,50.40
2022-08-09T20:19:48.518Z,50.30
2022-08-09T20:22:10.235Z,50.20
2022-08-09T20:24:53.481Z,50.10
2022-08-09T20:27:23.455Z,50.10
2022-08-09T20:29:52.390Z,50.20
2022-08-09T20:32:33.403Z,50.20
2022-08-09T20:35:03.922Z,49.90
2022-08-09T20:37:37.367Z,50.00
2022-08-09T20:40:27.088Z,50.00
2022-08-09T20:43:11.899Z,50.20
2022-08-09T20:46:01.922Z,50.10
2022-08-09T20:48:38.874Z,50.40
2022-08-09T20:51:19.146Z,50.50
2022-08-09T20:53:48.954Z,50.80
2022-08-09T20:56:22.024Z,50.80
2022-08-09T20:58:58.252Z,50.90
2022-08-09T21:01:34.012Z,51.00
2022-08-09T21:05:52.967Z,51.10
2022-08-09T21:07:13.152Z,51.20
2022-08-09T21:09:55.487Z,51.00
2022-08-09T21:15:23.582Z,51.30
2022-08-09T21:18:23.979Z,51.50
2022-08-09T21:20:54.096Z,51.60
2022-08-09T21:23:47.322Z,51.80
2022-08-09T21:26:12.356Z,51.70
2022-08-09T21:28:51.879Z,51.70
2022-08-09T21:31:48.164Z,51.70
2022-08-09T21:34:21.081Z,51.80
2022-08-09T21:36:57.981Z,51.70
2022-08-09T21:39:27.685Z,51.40
2022-08-09T21:42:10.889Z,51.60
2022-08-09T21:44:42.919Z,51.70
2022-08-09T21:47:17.515Z,51.80
2022-08-09T21:49:49.619Z,51.80
2022-08-09T21:52:22.007Z,51.80
2022-08-09T21:54:59.412Z,51.60
2022-08-09T21:57:39.049Z,51.50
2022-08-09T22:00:32.476Z,51.60
2022-08-09T22:03:05.872Z,51.80
2022-08-09T22:05:37.239Z,51.90
2022-08-09T22:08:14.598Z,51.80
2022-08-09T22:11:04.861Z,51.90
2022-08-09T22:13:36.813Z,52.00
2022-08-09T22:16:09.849Z,52.10
2022-08-09T22:18:52.847Z,52.20
2022-08-09T22:21:49.687Z,52.20
2022-08-09T22:24:24.272Z,52.80
2022-08-09T22:26:53.947Z,52.30
2022-08-09T22:29:28.953Z,52.40
2022-08-09T22:32:30.064Z,52.40
2022-08-09T22:35:06.159Z,52.40
2022-08-09T22:37:40.299Z,52.50
2022-08-09T22:40:18.275Z,52.60
2022-08-09T22:42:49.294Z,52.60
2022-08-09T22:48:13.622Z,52.60
2022-08-09T22:48:29.628Z,52.70
2022-08-09T22:50:56.613Z,52.70
2022-08-09T22:53:25.382Z,52.80
2022-08-09T22:56:31.383Z,52.70
2022-08-09T22:58:51.310Z,52.70
2022-08-09T23:01:19.991Z,52.70
2022-08-09T23:04:04.686Z,52.70
2022-08-09T23:06:49.136Z,52.90
2022-08-09T23:09:18.227Z,52.90
2022-08-09T23:11:47.111Z,53.00
2022-08-09T23:14:17.512Z,52.90
2022-08-09T23:16:59.181Z,53.00
2022-08-09T23:19:29.085Z,52.90
2022-08-09T23:21:59.537Z,52.70
2022-08-09T23:24:28.138Z,52.70
2022-08-09T23:26:56.717Z,52.70
2022-08-09T23:29:25.560Z,52.70
2022-08-09T23:31:59.621Z,52.90
2022-08-09T23:34:29.788Z,52.80
2022-08-09T23:36:58.363Z,52.90
2022-08-09T23:39:27.056Z,52.90
2022-08-09T23:41:56.080Z,53.00
2022-08-09T23:44:24.794Z,53.00
2022-08-09T23:46:57.792Z,52.90
2022-08-09T23:49:27.328Z,52.90
2022-08-09T23:51:57.409Z,52.70
2022-08-09T23:54:26.713Z,52.60
2022-08-09T23:56:58.380Z,52.60
2022-08-09T23:59:48.312Z,52.60
